AUI33T UKBB-UKLL
Flight info
| Callsign | AUI33T |
|---|---|
| Flight time | 0h 59m |
| Altitude | 30000 |
| Route | N0460F300 KAFEL P27 PEPIL N983 ADBAN |
| Aircraft | B738/M-DFGSW/L |
Departure
| Time | 2026-04-29 16:27 |
|---|---|
| Airport | Boryspil International Airport (UKBB) |
Arrival
| Time | 2026-04-29 17:26 |
|---|---|
| Airport | Lviv International Airport (UKLL) |
| Time | Latitude | Longitude | Altitude | Speed | Heading |
|---|---|---|---|---|---|
| 2026-04-29 15:58 | 50.35152 | 30.89888 | 410 ft | 0 kts | 274° |
| 2026-04-29 16:14 | 50.35152 | 30.89905 | 409 ft | 2 kts | 271° |
| 2026-04-29 16:14 | 50.35151 | 30.89928 | 409 ft | 2 kts | 274° |
| 2026-04-29 16:14 | 50.35150 | 30.89952 | 408 ft | 2 kts | 273° |
| 2026-04-29 16:14 | 50.35150 | 30.89976 | 408 ft | 2 kts | 255° |
| 2026-04-29 16:15 | 50.35157 | 30.89997 | 408 ft | 2 kts | 228° |
| 2026-04-29 16:15 | 50.35168 | 30.90010 | 408 ft | 2 kts | 202° |
| 2026-04-29 16:15 | 50.35183 | 30.90015 | 408 ft | 2 kts | 179° |
| 2026-04-29 16:15 | 50.35197 | 30.90015 | 408 ft | 2 kts | 185° |
| 2026-04-29 16:16 | 50.35212 | 30.90017 | 408 ft | 2 kts | 182° |
| 2026-04-29 16:16 | 50.35228 | 30.90018 | 408 ft | 2 kts | 183° |
| 2026-04-29 16:16 | 50.35238 | 30.90019 | 408 ft | 0 kts | 183° |
| 2026-04-29 16:19 | 50.35232 | 30.90019 | 408 ft | 4 kts | 176° |
| 2026-04-29 16:20 | 50.35201 | 30.90080 | 407 ft | 7 kts | 115° |
| 2026-04-29 16:20 | 50.35192 | 30.90169 | 407 ft | 11 kts | 91° |
| 2026-04-29 16:20 | 50.35143 | 30.90257 | 406 ft | 11 kts | 176° |
| 2026-04-29 16:20 | 50.35067 | 30.90252 | 406 ft | 11 kts | 184° |
| 2026-04-29 16:21 | 50.34980 | 30.90244 | 406 ft | 14 kts | 183° |
| 2026-04-29 16:21 | 50.34878 | 30.90236 | 408 ft | 15 kts | 183° |
| 2026-04-29 16:21 | 50.34761 | 30.90227 | 408 ft | 19 kts | 183° |
| 2026-04-29 16:21 | 50.34597 | 30.90215 | 408 ft | 28 kts | 182° |
| 2026-04-29 16:22 | 50.34401 | 30.90200 | 409 ft | 27 kts | 183° |
| 2026-04-29 16:22 | 50.34213 | 30.90188 | 411 ft | 26 kts | 183° |
| 2026-04-29 16:22 | 50.34031 | 30.90172 | 411 ft | 26 kts | 184° |
| 2026-04-29 16:22 | 50.33852 | 30.90160 | 411 ft | 25 kts | 182° |
| 2026-04-29 16:23 | 50.33678 | 30.90148 | 414 ft | 24 kts | 183° |
| 2026-04-29 16:23 | 50.33514 | 30.90133 | 414 ft | 23 kts | 184° |
| 2026-04-29 16:23 | 50.33350 | 30.90119 | 415 ft | 23 kts | 180° |
| 2026-04-29 16:23 | 50.33187 | 30.90115 | 414 ft | 23 kts | 182° |
| 2026-04-29 16:24 | 50.33025 | 30.90102 | 412 ft | 23 kts | 184° |
| 2026-04-29 16:24 | 50.32860 | 30.90083 | 411 ft | 24 kts | 185° |
| 2026-04-29 16:24 | 50.32692 | 30.90067 | 409 ft | 24 kts | 182° |
| 2026-04-29 16:24 | 50.32542 | 30.90063 | 408 ft | 18 kts | 177° |
| 2026-04-29 16:25 | 50.32468 | 30.90112 | 408 ft | 5 kts | 137° |
| 2026-04-29 16:25 | 50.32465 | 30.90116 | 408 ft | 0 kts | 137° |
| 2026-04-29 16:25 | 50.32460 | 30.90125 | 408 ft | 7 kts | 129° |
| 2026-04-29 16:26 | 50.32442 | 30.90237 | 408 ft | 11 kts | 90° |
| 2026-04-29 16:26 | 50.32473 | 30.90346 | 408 ft | 12 kts | 41° |
| 2026-04-29 16:26 | 50.32561 | 30.90391 | 408 ft | 13 kts | 6° |
| 2026-04-29 16:26 | 50.32673 | 30.90400 | 409 ft | 34 kts | 3° |
| 2026-04-29 16:27 | 50.33254 | 30.90436 | 413 ft | 127 kts | 2° |
| 2026-04-29 16:27 | 50.34327 | 30.90512 | 865 ft | 166 kts | 2° |
| 2026-04-29 16:27 | 50.35389 | 30.90545 | 1762 ft | 158 kts | 360° |
| 2026-04-29 16:27 | 50.36552 | 30.90582 | 2136 ft | 175 kts | 3° |
| 2026-04-29 16:28 | 50.37761 | 30.90758 | 2756 ft | 179 kts | 5° |
| 2026-04-29 16:28 | 50.39050 | 30.90986 | 3135 ft | 195 kts | 5° |
| 2026-04-29 16:28 | 50.40394 | 30.91174 | 3755 ft | 199 kts | 3° |
| 2026-04-29 16:28 | 50.41900 | 30.91340 | 4036 ft | 224 kts | 4° |
| 2026-04-29 16:29 | 50.43450 | 30.91558 | 4718 ft | 230 kts | 4° |
| 2026-04-29 16:29 | 50.45043 | 30.91784 | 5363 ft | 238 kts | 4° |
| 2026-04-29 16:29 | 50.46738 | 30.91995 | 5921 ft | 250 kts | 0° |
| 2026-04-29 16:29 | 50.48444 | 30.91495 | 6580 ft | 256 kts | 333° |
| 2026-04-29 16:30 | 50.49797 | 30.89706 | 7328 ft | 260 kts | 308° |
| 2026-04-29 16:30 | 50.50798 | 30.87361 | 8045 ft | 264 kts | 304° |
| 2026-04-29 16:30 | 50.51804 | 30.84919 | 8794 ft | 267 kts | 304° |
| 2026-04-29 16:30 | 50.52838 | 30.82491 | 9535 ft | 270 kts | 305° |
| 2026-04-29 16:31 | 50.53776 | 30.79966 | 10225 ft | 275 kts | 295° |
| 2026-04-29 16:31 | 50.54235 | 30.76986 | 10650 ft | 292 kts | 273° |
| 2026-04-29 16:31 | 50.53886 | 30.73763 | 11059 ft | 309 kts | 252° |
| 2026-04-29 16:31 | 50.53017 | 30.70634 | 11439 ft | 324 kts | 247° |
| 2026-04-29 16:32 | 50.52042 | 30.67362 | 12061 ft | 332 kts | 247° |
| 2026-04-29 16:32 | 50.51064 | 30.64085 | 12770 ft | 336 kts | 247° |
| 2026-04-29 16:32 | 50.50086 | 30.60769 | 13471 ft | 341 kts | 248° |
| 2026-04-29 16:32 | 50.49101 | 30.57407 | 14252 ft | 344 kts | 248° |
| 2026-04-29 16:33 | 50.47087 | 30.50492 | 15725 ft | 352 kts | 248° |
| 2026-04-29 16:33 | 50.46077 | 30.47006 | 16436 ft | 357 kts | 248° |
| 2026-04-29 16:33 | 50.45052 | 30.43459 | 17143 ft | 361 kts | 248° |
| 2026-04-29 16:34 | 50.44016 | 30.39871 | 17860 ft | 364 kts | 248° |
| 2026-04-29 16:34 | 50.42967 | 30.36233 | 18550 ft | 368 kts | 248° |
| 2026-04-29 16:34 | 50.41908 | 30.32553 | 19125 ft | 375 kts | 248° |
| 2026-04-29 16:34 | 50.40947 | 30.28742 | 19776 ft | 376 kts | 255° |
| 2026-04-29 16:35 | 50.40432 | 30.24749 | 20442 ft | 376 kts | 267° |
| 2026-04-29 16:35 | 50.40414 | 30.20737 | 21077 ft | 375 kts | 278° |
| 2026-04-29 16:35 | 50.40885 | 30.16724 | 21618 ft | 377 kts | 288° |
| 2026-04-29 16:35 | 50.41732 | 30.12858 | 22281 ft | 376 kts | 294° |
| 2026-04-29 16:36 | 50.42738 | 30.09018 | 22721 ft | 383 kts | 296° |
| 2026-04-29 16:36 | 50.43761 | 30.05150 | 23333 ft | 385 kts | 295° |
| 2026-04-29 16:36 | 50.44755 | 30.01217 | 23914 ft | 388 kts | 294° |
| 2026-04-29 16:36 | 50.45709 | 29.97256 | 24325 ft | 395 kts | 294° |
| 2026-04-29 16:37 | 50.46643 | 29.93205 | 24919 ft | 396 kts | 293° |
| 2026-04-29 16:37 | 50.47566 | 29.89073 | 25320 ft | 402 kts | 292° |
| 2026-04-29 16:37 | 50.48472 | 29.84938 | 25871 ft | 403 kts | 292° |
| 2026-04-29 16:37 | 50.49367 | 29.80797 | 26292 ft | 407 kts | 292° |
| 2026-04-29 16:38 | 50.50270 | 29.76590 | 26932 ft | 404 kts | 292° |
| 2026-04-29 16:38 | 50.51151 | 29.72468 | 27520 ft | 400 kts | 292° |
| 2026-04-29 16:38 | 50.52027 | 29.68362 | 28037 ft | 398 kts | 292° |
| 2026-04-29 16:38 | 50.52905 | 29.64256 | 28416 ft | 400 kts | 292° |
| 2026-04-29 16:39 | 50.53795 | 29.60110 | 28771 ft | 403 kts | 292° |
| 2026-04-29 16:39 | 50.54683 | 29.55981 | 29170 ft | 402 kts | 292° |
| 2026-04-29 16:39 | 50.55574 | 29.51839 | 29592 ft | 401 kts | 292° |
| 2026-04-29 16:39 | 50.56466 | 29.47706 | 30032 ft | 398 kts | 292° |
| 2026-04-29 16:40 | 50.57355 | 29.43588 | 30208 ft | 400 kts | 292° |
| 2026-04-29 16:40 | 50.58247 | 29.39466 | 30270 ft | 398 kts | 292° |
| 2026-04-29 16:40 | 50.59552 | 29.31000 | 30260 ft | 404 kts | 277° |
| 2026-04-29 16:41 | 50.59112 | 29.22071 | 30236 ft | 416 kts | 258° |
| 2026-04-29 16:41 | 50.57232 | 29.13451 | 30238 ft | 417 kts | 251° |
| 2026-04-29 16:42 | 50.55024 | 29.05103 | 30248 ft | 417 kts | 250° |
| 2026-04-29 16:42 | 50.52792 | 28.96754 | 30252 ft | 414 kts | 251° |
| 2026-04-29 16:43 | 50.50618 | 28.88482 | 30253 ft | 406 kts | 251° |
| 2026-04-29 16:43 | 50.48472 | 28.80221 | 30237 ft | 411 kts | 251° |
| 2026-04-29 16:44 | 50.46326 | 28.71923 | 30242 ft | 408 kts | 252° |
| 2026-04-29 16:44 | 50.44587 | 28.63554 | 30271 ft | 404 kts | 259° |
| 2026-04-29 16:45 | 50.43261 | 28.55009 | 30242 ft | 400 kts | 260° |
| 2026-04-29 16:45 | 50.41998 | 28.46513 | 30247 ft | 404 kts | 261° |
| 2026-04-29 16:46 | 50.40694 | 28.37956 | 30257 ft | 402 kts | 260° |
| 2026-04-29 16:46 | 50.39364 | 28.29435 | 30244 ft | 404 kts | 259° |
| 2026-04-29 16:47 | 50.38010 | 28.20908 | 30267 ft | 405 kts | 259° |
| 2026-04-29 16:47 | 50.36642 | 28.12362 | 30248 ft | 404 kts | 259° |
| 2026-04-29 16:48 | 50.35276 | 28.03898 | 30260 ft | 401 kts | 259° |
| 2026-04-29 16:48 | 50.33910 | 27.95465 | 30240 ft | 401 kts | 259° |
| 2026-04-29 16:49 | 50.32535 | 27.87022 | 30258 ft | 400 kts | 259° |
| 2026-04-29 16:49 | 50.31157 | 27.78638 | 30267 ft | 401 kts | 259° |
| 2026-04-29 16:50 | 50.29722 | 27.70219 | 30248 ft | 402 kts | 258° |
| 2026-04-29 16:50 | 50.28273 | 27.61861 | 30239 ft | 399 kts | 258° |
| 2026-04-29 16:51 | 50.26821 | 27.53498 | 30256 ft | 401 kts | 258° |
| 2026-04-29 16:51 | 50.25367 | 27.45145 | 30277 ft | 399 kts | 258° |
| 2026-04-29 16:52 | 50.23908 | 27.36786 | 30269 ft | 400 kts | 258° |
| 2026-04-29 16:52 | 50.22449 | 27.28466 | 30258 ft | 399 kts | 258° |
| 2026-04-29 16:53 | 50.20983 | 27.20151 | 30273 ft | 399 kts | 257° |
| 2026-04-29 16:53 | 50.19514 | 27.11846 | 30282 ft | 398 kts | 257° |
| 2026-04-29 16:54 | 50.18005 | 27.03550 | 30250 ft | 398 kts | 255° |
| 2026-04-29 16:54 | 50.16022 | 26.95484 | 30271 ft | 398 kts | 250° |
| 2026-04-29 16:55 | 50.13837 | 26.87544 | 30262 ft | 402 kts | 250° |
| 2026-04-29 16:55 | 50.11656 | 26.79603 | 30269 ft | 397 kts | 250° |
| 2026-04-29 16:56 | 50.09512 | 26.71689 | 30272 ft | 398 kts | 250° |
| 2026-04-29 16:56 | 50.07371 | 26.63740 | 30269 ft | 397 kts | 251° |
| 2026-04-29 16:57 | 50.05255 | 26.55883 | 30269 ft | 395 kts | 250° |
| 2026-04-29 16:57 | 50.03124 | 26.47988 | 30275 ft | 398 kts | 251° |
| 2026-04-29 16:58 | 50.00995 | 26.40120 | 30268 ft | 394 kts | 250° |
| 2026-04-29 16:58 | 49.98819 | 26.32231 | 30260 ft | 397 kts | 248° |
| 2026-04-29 16:59 | 49.96519 | 26.24506 | 30266 ft | 397 kts | 248° |
| 2026-04-29 16:59 | 49.94178 | 26.16807 | 30271 ft | 394 kts | 248° |
| 2026-04-29 17:00 | 49.91836 | 26.09082 | 30276 ft | 395 kts | 248° |
| 2026-04-29 17:00 | 49.89526 | 26.01449 | 30267 ft | 392 kts | 248° |
| 2026-04-29 17:01 | 49.88372 | 25.97639 | 30131 ft | 384 kts | 248° |
| 2026-04-29 17:01 | 49.87257 | 25.93964 | 29955 ft | 374 kts | 249° |
| 2026-04-29 17:01 | 49.86159 | 25.90349 | 29641 ft | 370 kts | 249° |
| 2026-04-29 17:01 | 49.85082 | 25.86798 | 29217 ft | 369 kts | 249° |
| 2026-04-29 17:02 | 49.83991 | 25.83198 | 28767 ft | 370 kts | 249° |
| 2026-04-29 17:02 | 49.82901 | 25.79610 | 28299 ft | 370 kts | 249° |
| 2026-04-29 17:02 | 49.81802 | 25.75991 | 27818 ft | 371 kts | 249° |
| 2026-04-29 17:02 | 49.80831 | 25.72353 | 27358 ft | 369 kts | 255° |
| 2026-04-29 17:03 | 49.80203 | 25.68585 | 26894 ft | 364 kts | 265° |
| 2026-04-29 17:03 | 49.79972 | 25.64690 | 26401 ft | 360 kts | 272° |
| 2026-04-29 17:03 | 49.79940 | 25.60882 | 25931 ft | 358 kts | 275° |
| 2026-04-29 17:03 | 49.79981 | 25.57025 | 25467 ft | 355 kts | 276° |
| 2026-04-29 17:04 | 49.80042 | 25.53249 | 25007 ft | 353 kts | 276° |
| 2026-04-29 17:04 | 49.80101 | 25.49456 | 24555 ft | 351 kts | 276° |
| 2026-04-29 17:04 | 49.80150 | 25.45717 | 24099 ft | 349 kts | 275° |
| 2026-04-29 17:04 | 49.80188 | 25.42017 | 23650 ft | 346 kts | 275° |
| 2026-04-29 17:05 | 49.80218 | 25.38294 | 23212 ft | 343 kts | 275° |
| 2026-04-29 17:05 | 49.80242 | 25.34634 | 22776 ft | 341 kts | 274° |
| 2026-04-29 17:05 | 49.80263 | 25.30964 | 22331 ft | 338 kts | 274° |
| 2026-04-29 17:05 | 49.80280 | 25.27362 | 21886 ft | 335 kts | 274° |
| 2026-04-29 17:06 | 49.80295 | 25.23817 | 21467 ft | 331 kts | 274° |
| 2026-04-29 17:06 | 49.80309 | 25.20293 | 21034 ft | 328 kts | 274° |
| 2026-04-29 17:06 | 49.80321 | 25.16770 | 20616 ft | 325 kts | 274° |
| 2026-04-29 17:06 | 49.80333 | 25.13292 | 20193 ft | 321 kts | 273° |
| 2026-04-29 17:07 | 49.80344 | 25.09876 | 19774 ft | 318 kts | 273° |
| 2026-04-29 17:07 | 49.80354 | 25.06502 | 19368 ft | 315 kts | 273° |
| 2026-04-29 17:07 | 49.80362 | 25.03145 | 18959 ft | 311 kts | 273° |
| 2026-04-29 17:07 | 49.80370 | 24.99815 | 18552 ft | 308 kts | 273° |
| 2026-04-29 17:08 | 49.80378 | 24.96506 | 18154 ft | 305 kts | 273° |
| 2026-04-29 17:08 | 49.80383 | 24.93243 | 17757 ft | 302 kts | 273° |
| 2026-04-29 17:08 | 49.80391 | 24.90025 | 17362 ft | 299 kts | 273° |
| 2026-04-29 17:08 | 49.80439 | 24.86858 | 16972 ft | 296 kts | 274° |
| 2026-04-29 17:09 | 49.80524 | 24.83682 | 16582 ft | 293 kts | 275° |
| 2026-04-29 17:09 | 49.80617 | 24.80588 | 16200 ft | 290 kts | 275° |
| 2026-04-29 17:09 | 49.80705 | 24.77495 | 15823 ft | 287 kts | 275° |
| 2026-04-29 17:09 | 49.80785 | 24.74410 | 15441 ft | 285 kts | 274° |
| 2026-04-29 17:10 | 49.80859 | 24.71387 | 15076 ft | 282 kts | 274° |
| 2026-04-29 17:10 | 49.80931 | 24.68386 | 14707 ft | 280 kts | 274° |
| 2026-04-29 17:10 | 49.81001 | 24.65376 | 14338 ft | 278 kts | 274° |
| 2026-04-29 17:10 | 49.81073 | 24.62324 | 13971 ft | 291 kts | 274° |
| 2026-04-29 17:11 | 49.81147 | 24.59168 | 13576 ft | 296 kts | 274° |
| 2026-04-29 17:11 | 49.81219 | 24.56039 | 13197 ft | 293 kts | 274° |
| 2026-04-29 17:11 | 49.81288 | 24.52892 | 12809 ft | 290 kts | 274° |
| 2026-04-29 17:11 | 49.81354 | 24.49826 | 12438 ft | 287 kts | 274° |
| 2026-04-29 17:12 | 49.81422 | 24.46760 | 12056 ft | 284 kts | 274° |
| 2026-04-29 17:12 | 49.81488 | 24.43726 | 11680 ft | 282 kts | 274° |
| 2026-04-29 17:12 | 49.81552 | 24.40709 | 11402 ft | 276 kts | 274° |
| 2026-04-29 17:12 | 49.81593 | 24.38757 | 11304 ft | 269 kts | 274° |
| 2026-04-29 17:13 | 49.81670 | 24.35035 | 11190 ft | 253 kts | 274° |
| 2026-04-29 17:13 | 49.81778 | 24.32351 | 11106 ft | 241 kts | 280° |
| 2026-04-29 17:13 | 49.82283 | 24.29968 | 10894 ft | 234 kts | 304° |
| 2026-04-29 17:13 | 49.83364 | 24.28118 | 10625 ft | 230 kts | 319° |
| 2026-04-29 17:14 | 49.84466 | 24.26358 | 10351 ft | 227 kts | 303° |
| 2026-04-29 17:14 | 49.84943 | 24.24066 | 10122 ft | 233 kts | 272° |
| 2026-04-29 17:14 | 49.84662 | 24.21466 | 9919 ft | 254 kts | 250° |
| 2026-04-29 17:14 | 49.83808 | 24.19121 | 9841 ft | 246 kts | 233° |
| 2026-04-29 17:15 | 49.82623 | 24.17337 | 9711 ft | 237 kts | 210° |
| 2026-04-29 17:15 | 49.81079 | 24.16678 | 9599 ft | 226 kts | 180° |
| 2026-04-29 17:15 | 49.79573 | 24.17025 | 9459 ft | 218 kts | 161° |
| 2026-04-29 17:15 | 49.78217 | 24.17974 | 9221 ft | 213 kts | 143° |
| 2026-04-29 17:16 | 49.77137 | 24.19521 | 8926 ft | 212 kts | 132° |
| 2026-04-29 17:16 | 49.76095 | 24.21154 | 8581 ft | 213 kts | 133° |
| 2026-04-29 17:16 | 49.75051 | 24.22740 | 8215 ft | 211 kts | 134° |
| 2026-04-29 17:16 | 49.73996 | 24.24318 | 7841 ft | 211 kts | 134° |
| 2026-04-29 17:17 | 49.72957 | 24.25863 | 7606 ft | 202 kts | 133° |
| 2026-04-29 17:17 | 49.71968 | 24.27333 | 7313 ft | 198 kts | 133° |
| 2026-04-29 17:17 | 49.70980 | 24.28806 | 6980 ft | 196 kts | 133° |
| 2026-04-29 17:17 | 49.70002 | 24.30263 | 6635 ft | 196 kts | 132° |
| 2026-04-29 17:18 | 49.69054 | 24.31670 | 6441 ft | 185 kts | 132° |
| 2026-04-29 17:18 | 49.68099 | 24.32975 | 6114 ft | 185 kts | 143° |
| 2026-04-29 17:18 | 49.66909 | 24.33673 | 5806 ft | 188 kts | 174° |
| 2026-04-29 17:18 | 49.65604 | 24.33471 | 5562 ft | 190 kts | 195° |
| 2026-04-29 17:19 | 49.64413 | 24.32651 | 5346 ft | 187 kts | 218° |
| 2026-04-29 17:19 | 49.63480 | 24.31245 | 5145 ft | 189 kts | 230° |
| 2026-04-29 17:19 | 49.62607 | 24.29744 | 4925 ft | 187 kts | 232° |
| 2026-04-29 17:19 | 49.61922 | 24.28072 | 4716 ft | 184 kts | 255° |
| 2026-04-29 17:20 | 49.61807 | 24.26160 | 4522 ft | 178 kts | 283° |
| 2026-04-29 17:20 | 49.62133 | 24.24372 | 4322 ft | 172 kts | 300° |
| 2026-04-29 17:20 | 49.62804 | 24.22905 | 4140 ft | 164 kts | 321° |
| 2026-04-29 17:20 | 49.63642 | 24.21735 | 4028 ft | 163 kts | 321° |
| 2026-04-29 17:21 | 49.64459 | 24.20493 | 3934 ft | 164 kts | 320° |
| 2026-04-29 17:21 | 49.65265 | 24.19259 | 3838 ft | 163 kts | 321° |
| 2026-04-29 17:21 | 49.66072 | 24.18055 | 3743 ft | 163 kts | 321° |
| 2026-04-29 17:21 | 49.66900 | 24.16829 | 3638 ft | 164 kts | 321° |
| 2026-04-29 17:22 | 49.67716 | 24.15615 | 3457 ft | 163 kts | 321° |
| 2026-04-29 17:22 | 49.68535 | 24.14394 | 3288 ft | 162 kts | 321° |
| 2026-04-29 17:22 | 49.69344 | 24.13192 | 3131 ft | 162 kts | 321° |
| 2026-04-29 17:22 | 49.70152 | 24.11989 | 2985 ft | 161 kts | 321° |
| 2026-04-29 17:23 | 49.70953 | 24.10800 | 2931 ft | 159 kts | 322° |
| 2026-04-29 17:23 | 49.71761 | 24.09599 | 2937 ft | 161 kts | 321° |
| 2026-04-29 17:23 | 49.72565 | 24.08397 | 2936 ft | 161 kts | 321° |
| 2026-04-29 17:23 | 49.73358 | 24.07213 | 2930 ft | 159 kts | 321° |
| 2026-04-29 17:24 | 49.74153 | 24.06027 | 2765 ft | 157 kts | 321° |
| 2026-04-29 17:24 | 49.74913 | 24.04891 | 2506 ft | 145 kts | 322° |
| 2026-04-29 17:24 | 49.75610 | 24.03847 | 2317 ft | 137 kts | 322° |
| 2026-04-29 17:24 | 49.76277 | 24.02858 | 2149 ft | 132 kts | 322° |
| 2026-04-29 17:25 | 49.76940 | 24.01869 | 1948 ft | 131 kts | 322° |
| 2026-04-29 17:25 | 49.77590 | 24.00891 | 1765 ft | 131 kts | 322° |
| 2026-04-29 17:25 | 49.78254 | 23.99909 | 1596 ft | 137 kts | 321° |
| 2026-04-29 17:25 | 49.78928 | 23.98886 | 1380 ft | 135 kts | 321° |
| 2026-04-29 17:26 | 49.79617 | 23.97866 | 1180 ft | 137 kts | 322° |
| 2026-04-29 17:26 | 49.80286 | 23.96878 | 1056 ft | 125 kts | 319° |
| 2026-04-29 17:26 | 49.80761 | 23.96152 | 1044 ft | 56 kts | 316° |
| 2026-04-29 17:26 | 49.80992 | 23.95820 | 1048 ft | 35 kts | 317° |
| 2026-04-29 17:27 | 49.81068 | 23.95704 | 1050 ft | 0 kts | 314° |
| 2026-04-29 17:27 | 49.81066 | 23.95708 | 1050 ft | 1 kts | 314° |
| 2026-04-29 17:27 | 49.81103 | 23.95650 | 1051 ft | 9 kts | 314° |
| 2026-04-29 17:27 | 49.81161 | 23.95566 | 1053 ft | 13 kts | 328° |
| 2026-04-29 17:28 | 49.81250 | 23.95596 | 1052 ft | 14 kts | 47° |
| 2026-04-29 17:28 | 49.81260 | 23.95613 | 1053 ft | 0 kts | 47° |
| 2026-04-29 17:28 | 49.81276 | 23.95642 | 1053 ft | 8 kts | 59° |
| 2026-04-29 17:28 | 49.81254 | 23.95760 | 1051 ft | 18 kts | 136° |
| 2026-04-29 17:29 | 49.81240 | 23.95862 | 1049 ft | 7 kts | 52° |
| 2026-04-29 17:29 | 49.81267 | 23.95906 | 1049 ft | 2 kts | 44° |
| 2026-04-29 17:29 | 49.81270 | 23.95910 | 1049 ft | 0 kts | 44° |